Latest Coastal Weather Observations for Low Isles

IDQ60701

Issued at 1:22 am EST Thursday 29 September 2016 (issued every 10 minutes, with the page automatically refreshed every 10 minutes)

About coastal observations | Map of coastal stations | Coastal observations for QLD | Marine services | Other Formats
Station Details ID: 031037 Name: LOW ISLES LIGHTHOUSE Lat: -16.38 Lon: 145.56 Height: 2.9 m
Data from the previous 72 hours. | See also: Recent months at Low Isles
Date/Time
EST
Temp
°C
Wind Pressure Rain since
9am
mm
Weather Cloud Vis
km
Sea
Height
m
Swell
Dir  Spd
kts
Gust
kts
hPa Trend Height
m
Period
s
Dir
29/01:00am 25.7 NNE 8 9 1011.5 - 0.0 - - - - - - -
29/12:30am 25.3 NE 7 9 1012.0 - 0.0 - - - - - - -
29/12:00am 25.5 NE 8 9 1012.3 - 0.0 - - - - - - -
 
Date/Time
EST
Temp
°C
Wind Pressure Rain since
9am
mm
Weather Cloud Vis
km
Sea
Height
m
Swell
Dir  Spd
kts
Gust
kts
hPa Trend Height
m
Period
s
Dir
28/11:30pm 25.4 NE 8 9 1012.5 - 0.0 - - - - - - -
28/11:00pm 25.5 NE 7 9 1012.7 - 0.0 - - - - - - -
28/10:30pm 25.7 NE 9 11 1012.7 - 0.0 - - - - - - -
28/10:00pm 25.6 NE 10 12 1012.5 - 0.0 - - - - - - -
28/09:30pm 25.7 ENE 11 12 1012.2 - 0.0 - - - - - - -
28/09:00pm 25.6 ENE 9 12 1011.7 - 0.0 - - - - - - -
28/08:30pm 26.0 ENE 10 12 1011.6 - 0.0 - - - - - - -
28/08:00pm 26.1 ENE 10 11 1011.3 - 0.0 - - - - - - -
28/07:30pm 26.2 ENE 9 11 1011.2 - 0.0 - - - - - - -
28/07:00pm 26.3 ENE 9 11 1011.0 - 0.0 - - - - - - -
28/06:30pm 26.6 ENE 8 10 1010.7 - 0.0 - - - - - - -
28/06:00pm 27.0 ENE 9 10 1010.5 - 0.0 - - - - - - -
28/05:30pm 27.7 ENE 9 11 1010.4 - 0.0 - - - - - - -
28/05:00pm 28.4 ENE 9 11 1010.2 - 0.0 - - - - - - -
28/04:30pm 29.4 ENE 9 11 1010.0 - 0.0 - - - - - - -
28/04:00pm 30.4 ENE 8 10 1009.9 - 0.0 - - - - - - -
28/03:30pm 30.9 ENE 8 10 1010.0 - 0.0 - - - - - - -
28/03:00pm 31.4 ENE 7 9 1010.1 - 0.0 - - - - - - -
28/02:30pm 32.4 ENE 7 10 1010.4 - 0.0 - - - - - - -
28/02:00pm 31.0 ENE 7 9 1010.7 - 0.0 - - - - - - -
28/01:30pm 29.8 E 5 7 1011.0 - 0.0 - - - - - - -
28/01:00pm 31.5 E 5 7 1011.6 - 0.0 - - - - - - -
28/12:30pm 31.3 ENE 5 7 1012.0 - 0.0 - - - - - - -
28/12:00pm 31.9 ENE 6 8 1012.5 - 0.0 - - - - - - -
28/11:30am 31.6 ENE 5 7 1013.1 - 0.0 - - - - - - -
28/11:00am 29.6 SSE 6 8 1013.5 - 0.0 - - - - - - -
28/10:30am 30.1 ENE 4 6 1013.9 - 0.0 - - - - - - -
28/10:00am 30.1 NNE 3 4 1014.0 - 0.0 - - - - - - -
28/09:30am 29.4 ENE 4 6 1014.2 - 0.0 - - - - - - -
28/09:00am 28.1 ESE 4 7 1014.1 - 0.0 Haze Mostly clear 18 - - - -
28/08:30am 27.4 ESE 6 8 1013.9 - 0.0 - - - - - - -
28/08:00am 26.9 ESE 7 8 1013.6 - 0.0 - - - - - - -
28/07:30am 26.1 E 5 7 1013.2 - 0.0 - - - - - - -
28/07:00am 25.2 ESE 6 7 1012.8 - 0.0 - - - - - - -
28/06:30am 24.8 ESE 7 9 1012.4 - 0.0 - - - - - - -
28/06:00am 24.7 E 8 9 1012.0 - 0.0 - - - - - - -
28/05:30am 24.9 E 8 10 1011.9 - 0.0 - - - - - - -
28/05:00am 24.9 ESE 8 9 1011.6 - 0.0 - - - - - - -
28/04:30am 25.0 ESE 8 9 1011.4 - 0.0 - - - - - - -
28/04:00am 25.1 E 8 11 1011.3 - 0.0 - - - - - - -
28/03:30am 25.2 ESE 9 11 1011.3 - 0.0 - - - - - - -
28/03:00am 25.3 ESE 8 10 1011.2 - 0.0 - - - - - - -
28/02:30am 25.2 ESE 8 9 1011.4 - 0.0 - - - - - - -
28/02:00am 25.0 ESE 7 9 1011.7 - 0.0 - - - - - - -
28/01:30am 25.1 ESE 7 8 1012.1 - 0.0 - - - - - - -
28/01:00am 25.2 E 7 8 1012.4 - 0.0 - - - - - - -
28/12:30am 25.7 ESE 8 9 1012.8 - 0.0 - - - - - - -
28/12:00am 25.8 ESE 8 9 1013.0 - 0.0 - - - - - - -
 
Date/Time
EST
Temp
°C
Wind Pressure Rain since
9am
mm
Weather Cloud Vis
km
Sea
Height
m
Swell
Dir  Spd
kts
Gust
kts
hPa Trend Height
m
Period
s
Dir
27/11:30pm 26.0 ESE 8 11 1013.2 - 0.0 - - - - - - -
27/11:00pm 25.8 E 8 10 1013.4 - 0.0 - - - - - - -
27/10:30pm 25.9 E 8 9 1013.4 - 0.0 - - - - - - -
27/10:00pm 26.2 ESE 7 9 1013.4 - 0.0 - - - - - - -
27/09:30pm 26.1 ESE 7 10 1013.2 - 0.0 - - - - - - -
27/09:00pm 26.0 ESE 9 10 1012.8 - 0.0 - - - - - - -
27/08:30pm 26.1 ESE 8 10 1012.4 - 0.0 - - - - - - -
27/08:00pm 26.2 ESE 10 11 1012.4 - 0.0 - - - - - - -
27/07:30pm 26.6 ESE 10 12 1012.1 - 0.0 - - - - - - -
27/07:00pm 26.5 ESE 8 10 1011.9 - 0.0 - - - - - - -
27/06:30pm 26.5 E 8 11 1011.5 - 0.0 - - - - - - -
27/06:00pm 26.8 E 10 12 1011.0 - 0.0 - - - - - - -
27/05:30pm 27.2 ESE 10 13 1010.9 - 0.0 - - - - - - -
27/05:00pm 27.5 ESE 10 13 1010.5 - 0.0 - - - - - - -
27/04:30pm 28.1 ESE 10 13 1010.3 - 0.0 - - - - - - -
27/04:00pm 28.6 ESE 8 9 1010.3 - 0.0 - - - - - - -
27/03:30pm 30.1 E 7 9 1010.1 - 0.0 - - - - - - -
27/03:00pm 30.1 ESE 10 13 1010.4 - 0.0 - - - - - - -
27/02:30pm 29.8 ESE 8 11 1010.9 - 0.0 - - - - - - -
27/02:00pm 30.7 ESE 9 11 1011.2 - 0.0 - - - - - - -
27/01:30pm 29.6 SE 9 12 1011.6 - 0.0 - - - - - - -
27/01:00pm 29.3 SE 9 13 1012.0 - 0.0 - - - - - - -
27/12:30pm 29.5 SSE 7 9 1012.4 - 0.0 - - - - - - -
27/12:00pm 29.1 SE 7 9 1013.1 - 0.0 - - - - - - -
27/11:30am 29.2 SSE 6 7 1013.7 - 0.0 - - - - - - -
27/11:00am 28.4 SSE 6 8 1014.1 - 0.0 - - - - - - -
27/10:30am 28.9 SSE 7 8 1014.3 - 0.0 - - - - - - -
27/10:00am 28.1 SSE 7 8 1014.4 - 0.0 - - - - - - -
27/09:30am 27.4 SSE 7 8 1014.4 - 0.0 - - - - - - -
27/09:00am 27.0 S 8 9 1014.4 - 0.0 Haze Partly cloudy 12 - - - -
27/08:30am 26.4 S 6 7 1014.4 - 0.0 - - - - - - -
27/08:00am 26.0 SSE 6 7 1014.0 - 0.0 - - - - - - -
27/07:30am 25.9 SSE 7 8 1013.8 - 0.0 - - - - - - -
27/07:00am 25.7 S 7 9 1013.5 - 0.0 - - - - - - -
27/06:30am 25.3 SW 7 10 1013.1 - 0.0 - - - - - - -
27/06:00am 25.1 WSW 8 10 1012.7 - 0.0 - - - - - - -
27/05:30am 25.3 SW 6 8 1012.6 - 0.0 - - - - - - -
27/05:00am 25.2 SW 7 8 1012.3 - 0.0 - - - - - - -
27/04:30am 25.4 SW 6 8 1012.1 - 0.0 - - - - - - -
27/04:00am 25.4 WSW 5 6 1011.9 - 0.0 - - - - - - -
27/03:30am 25.2 SW 6 7 1011.8 - 0.0 - - - - - - -
27/03:00am 25.1 SW 6 7 1011.9 - 0.0 - - - - - - -
27/02:30am 25.3 SW 4 5 1012.1 - 0.0 - - - - - - -
27/02:00am 25.4 SW 6 7 1012.1 - 0.0 - - - - - - -
27/01:30am 25.4 WSW 6 7 1012.3 - 0.0 - - - - - - -
27/01:00am 25.6 W 2 6 1012.6 - 0.0 - - - - - - -
27/12:30am 25.1 NNW 3 5 1013.0 - 0.0 - - - - - - -
27/12:00am 25.3 N 4 5 1013.1 - 0.0 - - - - - - -
 
Date/Time
EST
Temp
°C
Wind Pressure Rain since
9am
mm
Weather Cloud Vis
km
Sea
Height
m
Swell
Dir  Spd
kts
Gust
kts
hPa Trend Height
m
Period
s
Dir
26/11:30pm 25.3 N 3 4 1013.5 - 0.0 - - - - - - -
26/11:00pm 25.2 N 4 5 1013.7 - 0.0 - - - - - - -
26/10:30pm 25.0 N 4 5 1013.7 - 0.0 - - - - - - -
26/10:00pm 24.9 NNE 4 4 1013.7 - 0.0 - - - - - - -
26/09:30pm 25.1 N 3 4 1013.4 - 0.0 - - - - - - -
26/09:00pm 25.4 ENE 3 4 1013.2 - 0.0 - - - - - - -
26/08:30pm 25.4 NNE 3 5 1013.2 - 0.0 - - - - - - -
26/08:00pm 25.5 NE 3 4 1012.8 - 0.0 - - - - - - -
26/07:30pm 25.7 E 3 4 1012.5 - 0.0 - - - - - - -
26/07:00pm 25.9 NE 4 5 1012.0 - 0.0 - - - - - - -
26/06:30pm 26.3 NE 4 5 1011.6 - 0.0 - - - - - - -
26/06:00pm 27.1 NE 6 7 1011.0 - 0.0 - - - - - - -
26/05:30pm 27.8 NE 6 7 1010.8 - 0.0 - - - - - - -
26/05:00pm 28.8 NE 7 8 1010.5 - 0.0 - - - - - - -
26/04:30pm 29.2 ENE 7 9 1010.2 - 0.0 - - - - - - -
26/04:00pm 30.4 ENE 7 9 1010.2 - 0.0 - - - - - - -
26/03:30pm 31.2 NE 8 9 1010.2 - 0.0 - - - - - - -
26/03:00pm 31.4 ENE 8 9 1010.2 - 0.0 - - - - - - -
26/02:30pm 31.6 ENE 7 10 1010.5 - 0.0 - - - - - - -
26/02:00pm 31.7 ENE 7 9 1010.5 - 0.0 - - - - - - -
26/01:30pm 31.6 ENE 7 9 1010.8 - 0.0 - - - - - - -
26/01:00pm 31.8 ENE 7 10 1011.2 - 0.0 - - - - - - -
26/12:30pm 31.3 ENE 6 8 1011.6 - 0.0 - - - - - - -
26/12:00pm 30.8 E 5 7 1012.1 - 0.0 - - - - - - -
26/11:30am 29.6 SE 7 9 1012.7 - 0.0 - - - - - - -
26/11:00am 28.3 SE 8 10 1013.2 - 0.0 - - - - - - -
26/10:30am 28.1 SE 8 10 1013.4 - 0.0 - - - - - - -
26/10:00am 28.2 S 5 6 1013.5 - 0.0 - - - - - - -
26/09:30am 26.3 SW 5 6 1013.7 - 0.0 - - - - - - -
26/09:00am 25.5 WSW 6 7 1013.6 - 0.0 Haze Mostly clear 11 - - - -
26/08:30am 25.1 WSW 7 8 1013.6 - 0.0 - - - - - - -
26/08:00am 25.0 W 6 7 1013.2 - 0.0 - - - - - - -
26/07:30am 24.7 W 9 10 1012.7 - 0.0 - - - - - - -
26/07:00am 24.4 W 8 10 1012.3 - 0.0 - - - - - - -
26/06:30am 24.5 W 8 9 1011.9 - 0.0 - - - - - - -
26/06:00am 24.3 W 7 8 1011.5 - 0.0 - - - - - - -
26/05:30am 24.7 WSW 5 6 1011.3 - 0.0 - - - - - - -
26/05:00am 24.5 WSW 5 6 1011.1 - 0.0 - - - - - - -
26/04:30am 24.5 WSW 6 7 1010.5 - 0.0 - - - - - - -
26/04:00am 24.4 WSW 6 7 1010.4 - 0.0 - - - - - - -
26/03:30am 24.5 W 7 8 1010.4 - 0.0 - - - - - - -
26/03:00am 24.7 W 5 6 1010.4 - 0.0 - - - - - - -
26/02:30am 24.6 WSW 5 6 1010.6 - 0.0 - - - - - - -
26/02:00am 24.7 WSW 5 6 1010.7 - 0.0 - - - - - - -
26/01:30am 24.7 W 5 5 1010.9 - 0.0 - - - - - - -

Other Formats:

Comma delimited format used in spreadsheet applications
http://www.bom.gov.au/fwo/IDQ60701/IDQ60701.94285.axf

JavaScript Object Notation format (JSON) in row-major order
http://www.bom.gov.au/fwo/IDQ60701/IDQ60701.94285.json